Time;durP1;ratioP1;P1;durP2;ratioP2;P2;SDS_P1;SDS_P2;PMS_P1;PMS_P2;Temp;Humidity;BMP_temperature;BMP_pressure;BME280_temperature;BME280_humidity;BME280_pressure;Samples;Min_cycle;Max_cycle;Signal;HPM_P1;HPM_P2
2021/12/24 00:01:56;;;;;;;26.93;15.33;;;;;;;-10.10;71.14;100394.67;1678896;84;21101;-66
2021/12/24 00:04:23;;;;;;;28.73;15.10;;;;;;;-10.02;70.89;100399.55;1675119;85;21028;-66
2021/12/24 00:06:52;;;;;;;25.93;14.63;;;;;;;-10.02;70.84;100391.81;1687838;85;21095;-66
2021/12/24 00:09:22;;;;;;;25.73;13.83;;;;;;;-10.00;70.87;100395.17;1689480;84;21048;-66
2021/12/24 00:11:51;;;;;;;28.63;15.53;;;;;;;-9.97;70.82;100383.92;1682855;84;20973;-65
2021/12/24 00:14:19;;;;;;;23.43;13.07;;;;;;;-9.99;70.81;100384.80;1689188;84;21004;-67
2021/12/24 00:16:51;;;;;;;27.23;16.10;;;;;;;-10.03;70.83;100380.66;1676340;85;21052;-66
2021/12/24 00:36:33;;;;;;;25.23;13.27;;;;;;;-9.84;70.52;100338.72;1705275;83;21574;-67
2021/12/24 00:39:00;;;;;;;29.12;15.95;;;;;;;-9.81;70.31;100332.99;1706257;83;20993;-67
2021/12/24 00:41:26;;;;;;;24.92;14.15;;;;;;;-9.79;70.18;100335.06;1703540;83;21091;-67
2021/12/24 00:43:52;;;;;;;28.98;14.05;;;;;;;-9.75;70.19;100326.76;1699103;83;21095;-65
2021/12/24 00:46:18;;;;;;;23.80;13.18;;;;;;;-9.68;69.97;100328.20;1671823;80;21001;-66
2021/12/24 00:48:46;;;;;;;;;;;;;;;-9.71;69.83;100323.61;1674584;84;21512;-65
2021/12/24 00:51:23;;;;;;;25.65;14.70;;;;;;;-9.70;69.74;100317.11;1665291;84;20115;-67
2021/12/24 00:56:15;;;;;;;23.83;12.70;;;;;;;-9.69;69.79;100312.32;1677334;84;21061;-66
2021/12/24 00:58:43;;;;;;;28.43;11.43;;;;;;;-9.69;69.57;100309.74;1672867;84;21617;-66
2021/12/24 01:01:13;;;;;;;27.93;14.77;;;;;;;-9.72;69.62;100287.92;1680987;83;21527;-66
2021/12/24 01:03:40;;;;;;;19.50;13.60;;;;;;;-9.73;69.59;100293.17;1682512;84;21000;-68
2021/12/24 01:06:07;;;;;;;19.13;11.13;;;;;;;-9.75;69.61;100276.91;1690870;83;21068;-67
2021/12/24 01:08:35;;;;;;;20.67;12.27;;;;;;;-9.86;69.79;100272.17;1687012;84;21610;-68
2021/12/24 01:11:07;;;;;;;18.60;12.83;;;;;;;-9.89;69.82;100266.66;1683818;84;21043;-65
2021/12/24 01:13:33;;;;;;;19.00;11.00;;;;;;;-9.86;69.83;100260.11;1687478;84;21745;-65
2021/12/24 01:16:05;;;;;;;21.62;12.82;;;;;;;-9.86;69.98;100273.00;1674515;84;20972;-66
2021/12/24 01:24:09;;;;;;;26.55;11.97;;;;;;;-9.88;69.75;100241.73;1698031;81;21025;-66
2021/12/24 01:26:11;;;;;;;26.60;14.30;;;;;;;-9.84;69.56;100252.31;1702558;82;21023;-66
2021/12/24 01:45:01;;;;;;;46.60;26.07;;;;;;;-9.76;69.52;100190.92;1685128;82;20985;-66
2021/12/24 01:47:27;;;;;;;36.98;20.68;;;;;;;-9.76;69.70;100183.19;1701264;82;21061;-66
2021/12/24 01:49:54;;;;;;;55.52;27.50;;;;;;;-9.74;69.74;100177.97;1704066;82;21017;-66
2021/12/24 01:52:22;;;;;;;80.20;35.50;;;;;;;-9.71;69.71;100178.69;1715737;82;21094;-66
2021/12/24 01:54:50;;;;;;;76.10;34.07;;;;;;;-9.70;69.71;100173.93;1667521;84;21632;-66
2021/12/24 01:57:16;;;;;;;29.77;15.08;;;;;;;-9.70;69.62;100163.61;1624329;84;21006;-66
2021/12/24 01:59:42;;;;;;;26.02;13.72;;;;;;;-9.69;69.55;100157.99;1621590;87;21118;-65
2021/12/24 02:02:09;;;;;;;21.27;12.50;;;;;;;-9.71;69.60;100151.60;1649247;85;21019;-66
2021/12/24 02:04:35;;;;;;;;;;;;;;;-9.70;69.52;100151.14;1650053;85;21074;-65
2021/12/24 02:07:03;;;;;;;19.90;11.57;;;;;;;-9.72;69.61;100147.33;1620596;87;20181;-65
2021/12/24 02:09:30;;;;;;;20.50;10.80;;;;;;;-9.73;69.66;100143.09;1649102;85;21024;-66
2021/12/24 02:11:58;;;;;;;18.83;9.13;;;;;;;-9.76;69.80;100133.34;1655575;85;21545;-66
2021/12/24 02:14:31;;;;;;;19.23;11.00;;;;;;;-9.72;69.69;100132.31;1647756;85;21099;-67
2021/12/24 02:17:23;;;;;;;18.90;10.93;;;;;;;-9.70;69.73;100120.19;1616166;86;21032;-65
2021/12/24 02:28:25;;;;;;;19.10;9.67;;;;;;;-9.65;69.82;100099.73;1641596;85;21775;-66
2021/12/24 02:30:44;;;;;;;16.15;8.20;;;;;;;-9.64;69.79;100092.40;1645594;85;21017;-67
2021/12/24 02:33:13;;;;;;;22.97;10.00;;;;;;;-9.63;69.83;100079.86;1691949;84;21299;-66
2021/12/24 02:35:39;;;;;;;23.40;11.00;;;;;;;-9.91;69.75;100024.77;1648821;85;21125;-66
2021/12/24 02:38:05;;;;;;;;;;;;;;;-9.58;69.83;100080.14;1650572;86;21108;-65
2021/12/24 02:40:33;;;;;;;17.27;9.03;;;;;;;-9.56;69.90;100075.30;1641961;85;20175;-65
2021/12/24 02:43:00;;;;;;;19.87;12.03;;;;;;;-9.60;70.09;100077.16;1646556;85;21049;-65
2021/12/24 02:45:31;;;;;;;20.50;11.27;;;;;;;-9.58;70.14;100074.52;1675745;82;21116;-65
2021/12/24 02:55:51;;;;;;;17.80;8.67;;;;;;;-9.49;70.05;100050.04;1699990;82;22013;-66
2021/12/24 02:58:17;;;;;;;19.73;8.85;;;;;;;-9.54;70.09;100041.69;1656325;84;21561;-66
2021/12/24 03:00:43;;;;;;;17.77;9.65;;;;;;;-9.51;70.19;100041.53;1646779;84;21576;-66
2021/12/24 03:03:10;;;;;;;18.60;11.18;;;;;;;-9.49;70.18;100049.61;1624009;86;21040;-65
2021/12/24 03:05:37;;;;;;;20.27;11.25;;;;;;;-9.47;70.02;100041.80;1621863;86;21010;-66
2021/12/24 03:08:05;;;;;;;21.30;10.93;;;;;;;-9.49;70.01;100043.59;1618364;86;21112;-66
2021/12/24 03:10:31;;;;;;;21.23;11.48;;;;;;;-9.53;70.09;100032.59;1628528;86;21021;-66
2021/12/24 03:12:57;;;;;;;20.40;12.15;;;;;;;-9.50;70.03;100031.61;1620621;85;21089;-67
2021/12/24 03:15:25;;;;;;;13.22;8.53;;;;;;;-9.50;70.00;100019.53;1586687;89;21043;-67
2021/12/24 03:17:57;;;;;;;17.70;10.67;;;;;;;-9.50;70.01;100017.41;1594356;88;21626;-66
2021/12/24 03:20:23;;;;;;;20.77;11.17;;;;;;;-9.48;69.96;100007.86;1621515;86;21133;-68
2021/12/24 03:23:11;;;;;;;21.13;11.13;;;;;;;-9.47;69.94;100000.52;1599297;88;21052;-68
2021/12/24 03:25:34;;;;;;;18.00;10.17;;;;;;;-9.46;69.90;99980.23;1638845;86;21037;-63
2021/12/24 03:28:00;;;;;;;13.05;8.25;;;;;;;-9.45;69.93;99985.80;1637453;86;21177;-64
2021/12/24 03:30:28;;;;;;;15.43;9.15;;;;;;;-9.44;69.91;99977.13;1639632;86;21050;-65
2021/12/24 03:32:56;;;;;;;20.70;11.40;;;;;;;-9.48;69.94;99976.89;1642320;86;21009;-64
2021/12/24 03:35:22;;;;;;;23.30;10.08;;;;;;;-9.48;69.98;99971.27;1653028;84;21027;-64
2021/12/24 03:37:49;;;;;;;19.35;11.80;;;;;;;-9.55;70.26;99978.90;1630404;85;20995;-64
2021/12/24 03:40:15;;;;;;;22.30;11.68;;;;;;;-9.49;70.19;99970.04;1651113;85;21598;-64
2021/12/24 03:42:43;;;;;;;15.93;11.22;;;;;;;-9.46;70.28;99969.45;1645959;85;21069;-66
2021/12/24 03:45:41;;;;;;;18.93;10.33;;;;;;;-9.43;70.06;99963.33;1661533;83;21060;-64
2021/12/24 03:47:41;;;;;;;19.27;11.50;;;;;;;-9.46;70.12;99958.30;1654519;85;21053;-65
2021/12/24 03:50:11;;;;;;;26.93;14.40;;;;;;;-9.42;69.98;99962.41;1661503;85;21608;-65
2021/12/24 03:55:08;;;;;;;21.67;11.87;;;;;;;-9.43;69.94;99944.80;1615765;83;21572;-65
2021/12/24 03:57:39;;;;;;;19.83;10.63;;;;;;;-9.39;69.78;99945.50;1647813;85;21048;-67
2021/12/24 04:00:29;;;;;;;19.77;11.23;;;;;;;-9.33;69.76;99937.93;1652975;83;21108;-64
2021/12/24 04:03:00;;;;;;;22.47;12.00;;;;;;;-9.31;69.58;99930.48;1637747;85;22122;-65
2021/12/24 04:05:32;;;;;;;20.83;11.23;;;;;;;-9.28;69.28;99929.06;1656404;85;21075;-65
2021/12/24 04:08:17;;;;;;;14.30;9.03;;;;;;;-9.31;69.13;99925.78;1651346;85;21605;-66
2021/12/24 04:10:55;;;;;;;19.30;12.17;;;;;;;-9.43;69.20;99906.55;1643834;85;21237;-64
2021/12/24 04:13:29;;;;;;;17.57;9.50;;;;;;;-9.40;69.27;99900.80;1656136;85;21578;-64
2021/12/24 04:15:55;;;;;;;14.50;9.15;;;;;;;-9.39;69.26;99905.50;1655976;85;21389;-65
2021/12/24 04:18:40;;;;;;;21.97;11.78;;;;;;;-9.47;69.37;99906.33;1651627;85;21052;-64
2021/12/24 04:26:22;;;;;;;20.23;10.63;;;;;;;-9.43;69.48;99882.04;1632816;86;21102;-65
2021/12/24 04:28:48;;;;;;;18.07;10.48;;;;;;;-9.48;69.65;99877.08;1633874;86;21036;-65
2021/12/24 04:31:17;;;;;;;22.73;12.57;;;;;;;-9.47;69.70;99859.88;1635993;86;21576;-66
2021/12/24 04:33:48;;;;;;;23.63;11.50;;;;;;;-9.43;69.76;99855.77;1612814;86;21097;-65
2021/12/24 05:03:39;;;;;;;16.43;9.97;;;;;;;-9.31;70.51;99818.66;1640503;86;21054;-67
2021/12/24 05:11:18;;;;;;;20.72;12.47;;;;;;;-9.31;70.65;99798.84;1634666;84;21023;-65
2021/12/24 05:13:45;;;;;;;19.10;11.30;;;;;;;-9.36;70.84;99788.36;1630596;86;21074;-65
2021/12/24 05:16:24;;;;;;;25.97;11.40;;;;;;;-9.29;70.78;99802.18;1614901;86;21561;-64
2021/12/24 05:21:54;;;;;;;16.77;8.73;;;;;;;-9.21;70.70;99779.42;1627416;86;21110;-65
2021/12/24 05:24:25;;;;;;;15.97;10.47;;;;;;;-9.19;70.62;99783.23;1631833;85;21006;-64
2021/12/24 05:27:00;;;;;;;21.33;11.30;;;;;;;-9.21;70.66;99783.30;1634526;86;21078;-66
2021/12/24 05:29:27;;;;;;;21.33;11.93;;;;;;;-9.25;70.86;99768.02;1595963;88;21056;-66
2021/12/24 05:31:54;;;;;;;23.27;12.30;;;;;;;-9.23;70.84;99776.52;1634211;86;21076;-64
2021/12/24 05:34:20;;;;;;;20.62;10.68;;;;;;;-9.13;70.64;99775.16;1655116;84;21039;-65
2021/12/24 05:36:47;;;;;;;;;;;;;;;-9.11;70.55;99772.05;1668993;84;21490;-65
2021/12/24 05:39:16;;;;;;;17.00;8.53;;;;;;;-9.04;70.44;99773.84;1661865;84;20145;-66
2021/12/24 05:41:46;;;;;;;18.83;11.63;;;;;;;-9.05;70.36;99774.31;1671669;84;21034;-65
2021/12/24 05:44:16;;;;;;;19.50;10.63;;;;;;;-9.02;70.34;99769.00;1670589;82;21481;-65
2021/12/24 05:46:45;;;;;;;23.67;12.13;;;;;;;-9.00;70.32;99784.42;1667497;84;21056;-65
2021/12/24 05:49:17;;;;;;;18.13;9.13;;;;;;;-8.94;70.19;99771.66;1666257;84;21085;-65
2021/12/24 05:51:45;;;;;;;17.60;9.77;;;;;;;-8.97;70.29;99763.59;1659088;84;21598;-65
2021/12/24 05:54:19;;;;;;;16.60;10.20;;;;;;;-8.93;70.21;99766.39;1660240;84;21072;-65
2021/12/24 05:56:46;;;;;;;18.60;11.10;;;;;;;-8.86;70.02;99776.79;1664836;82;21005;-65
2021/12/24 05:59:14;;;;;;;18.37;12.10;;;;;;;-8.84;69.99;99759.46;1671396;84;21056;-65
2021/12/24 06:01:40;;;;;;;18.65;11.93;;;;;;;-9.11;69.89;99696.34;1669096;84;21044;-65
2021/12/24 06:04:06;;;;;;;27.93;11.80;;;;;;;-8.69;69.82;99759.13;1678397;84;21046;-66
2021/12/24 06:06:34;;;;;;;19.03;10.73;;;;;;;-8.69;69.68;99761.70;1679013;84;21036;-66
2021/12/24 06:09:00;;;;;;;20.97;11.18;;;;;;;-8.62;69.65;99762.23;1682103;84;22199;-66
2021/12/24 06:11:26;;;;;;;15.35;10.82;;;;;;;-8.60;69.58;99757.81;1669096;82;21514;-66
2021/12/24 06:13:55;;;;;;;17.32;10.78;;;;;;;-8.53;69.53;99760.46;1679925;84;21564;-65
2021/12/24 06:16:21;;;;;;;18.50;10.43;;;;;;;-8.43;69.39;99752.58;1681597;84;21041;-67
2021/12/24 06:18:48;;;;;;;15.43;10.47;;;;;;;-8.43;69.12;99740.13;1679329;84;21121;-66
2021/12/24 06:21:14;;;;;;;16.07;9.20;;;;;;;-8.44;69.17;99738.00;1681455;84;21096;-66
2021/12/24 06:23:43;;;;;;;19.00;10.60;;;;;;;-8.35;69.23;99731.92;1685062;82;21033;-65
2021/12/24 06:26:09;;;;;;;19.37;10.67;;;;;;;-8.32;69.10;99720.13;1643122;86;21526;-66
2021/12/24 06:28:36;;;;;;;19.15;10.25;;;;;;;-8.35;68.80;99720.28;1637582;86;21619;-65
2021/12/24 06:31:03;;;;;;;19.43;11.43;;;;;;;-8.34;68.89;99704.70;1637898;86;21104;-65
2021/12/24 06:33:31;;;;;;;23.70;10.72;;;;;;;-8.29;69.01;99709.13;1635381;86;21531;-64
2021/12/24 06:35:58;;;;;;;24.37;11.73;;;;;;;-8.33;69.15;99703.77;1637504;86;21070;-65
2021/12/24 06:38:24;;;;;;;;;;;;;;;-8.33;69.01;99688.72;1647702;85;21034;-65
2021/12/24 06:40:51;;;;;;;19.40;10.30;;;;;;;-8.28;68.91;99699.66;1640673;85;20147;-65
2021/12/24 06:43:18;;;;;;;14.53;10.20;;;;;;;-8.29;69.00;99704.44;1663593;85;21012;-65
2021/12/24 06:45:47;;;;;;;18.00;10.80;;;;;;;-8.27;69.09;99684.50;1621297;85;21603;-66
2021/12/24 06:48:14;;;;;;;18.50;10.93;;;;;;;-8.27;69.11;99694.41;1609610;88;21041;-63
2021/12/24 06:50:40;;;;;;;17.27;9.63;;;;;;;-8.19;69.10;99682.34;1607658;88;21738;-64
2021/12/24 06:53:07;;;;;;;18.27;11.07;;;;;;;-8.18;69.04;99676.70;1597678;88;21533;-64
2021/12/24 06:55:33;;;;;;;16.77;10.18;;;;;;;-8.11;68.91;99660.75;1593820;88;21058;-65
2021/12/24 06:58:03;;;;;;;15.90;9.47;;;;;;;-8.07;68.94;99660.95;1624100;86;21615;-65
2021/12/24 07:00:30;;;;;;;16.67;9.93;;;;;;;-7.99;68.85;99648.05;1636740;85;21142;-65
2021/12/24 07:02:56;;;;;;;20.40;10.10;;;;;;;-7.96;68.70;99650.47;1637490;86;21048;-67
2021/12/24 07:05:23;;;;;;;13.68;9.25;;;;;;;-7.98;68.64;99637.62;1640095;85;21586;-65
2021/12/24 07:07:51;;;;;;;13.60;9.37;;;;;;;-8.06;68.75;99644.96;1613796;86;21110;-65
2021/12/24 07:10:18;;;;;;;20.30;12.70;;;;;;;-8.06;69.01;99641.08;1633516;85;21014;-66
2021/12/24 07:12:45;;;;;;;21.00;12.03;;;;;;;-7.96;69.06;99628.48;1634810;85;21099;-66
2021/12/24 07:15:11;;;;;;;19.12;12.28;;;;;;;-7.96;68.81;99620.73;1592232;88;21065;-65
2021/12/24 07:17:39;;;;;;;17.75;12.63;;;;;;;-7.98;68.96;99622.57;1590713;88;21089;-64
2021/12/24 07:20:06;;;;;;;16.43;9.20;;;;;;;-7.87;68.99;99612.44;1597700;88;21065;-67
2021/12/24 07:22:34;;;;;;;20.57;12.50;;;;;;;-7.86;68.83;99603.27;1605203;86;21192;-66
2021/12/24 07:25:01;;;;;;;19.32;12.55;;;;;;;-7.84;68.70;99592.36;1589100;88;21199;-64
2021/12/24 07:27:27;;;;;;;18.53;10.60;;;;;;;-7.79;68.71;99600.34;1603581;88;21006;-66
2021/12/24 07:29:54;;;;;;;14.73;9.87;;;;;;;-7.74;68.76;99591.83;1609906;88;21088;-68
2021/12/24 07:32:20;;;;;;;23.02;11.15;;;;;;;-7.70;68.72;99603.69;1655305;85;21515;-66
2021/12/24 07:34:48;;;;;;;21.20;12.93;;;;;;;-7.71;68.54;99601.54;1592154;88;21025;-66
2021/12/24 07:37:14;;;;;;;17.15;10.25;;;;;;;-7.65;68.60;99590.85;1590225;88;21078;-66
2021/12/24 07:39:40;;;;;;;19.80;10.88;;;;;;;-7.60;68.65;99592.33;1607902;88;21102;-67
2021/12/24 07:42:08;;;;;;;22.52;12.70;;;;;;;-7.57;68.44;99563.66;1636113;86;21024;-67
2021/12/24 07:44:35;;;;;;;16.27;10.60;;;;;;;-7.53;68.23;99564.69;1627865;86;20987;-66
2021/12/24 07:47:05;;;;;;;20.27;11.27;;;;;;;-7.60;68.32;99567.27;1598706;88;21013;-67
2021/12/24 07:49:38;;;;;;;16.33;9.30;;;;;;;-7.60;68.45;99555.62;1622322;87;21590;-67
2021/12/24 07:54:42;;;;;;;18.13;11.43;;;;;;;-7.58;68.31;99552.95;1609442;88;21603;-68
2021/12/24 07:57:12;;;;;;;17.60;10.00;;;;;;;-7.54;68.40;99551.84;1607459;87;21066;-65
2021/12/24 07:59:41;;;;;;;18.50;11.00;;;;;;;-7.60;68.14;99543.98;1602668;88;21533;-68
2021/12/24 08:02:14;;;;;;;20.23;12.17;;;;;;;-7.55;68.49;99542.39;1629408;86;21050;-68
2021/12/24 08:04:43;;;;;;;18.73;11.87;;;;;;;-7.54;68.60;99538.89;1601516;88;21078;-67
2021/12/24 08:07:09;;;;;;;16.47;11.13;;;;;;;-7.48;68.50;99542.39;1586531;89;21090;-66
2021/12/24 08:09:37;;;;;;;16.12;11.83;;;;;;;-7.38;68.49;99524.53;1592415;88;21065;-67
2021/12/24 08:12:08;;;;;;;17.10;11.10;;;;;;;-7.36;68.21;99509.77;1599629;87;21066;-67
2021/12/24 08:14:36;;;;;;;20.40;11.10;;;;;;;-7.31;68.29;99521.50;1599852;88;21056;-67
2021/12/24 08:17:05;;;;;;;16.07;10.70;;;;;;;-7.30;68.14;99520.56;1609352;88;21128;-65
2021/12/24 08:19:32;;;;;;;16.13;10.23;;;;;;;-7.29;68.10;99516.20;1606862;88;21191;-65
2021/12/24 08:21:59;;;;;;;17.32;9.13;;;;;;;-7.25;68.31;99497.81;1599192;88;21085;-66
2021/12/24 08:24:27;;;;;;;16.50;10.23;;;;;;;-7.25;68.30;99522.41;1603191;88;21029;-64
2021/12/24 08:26:53;;;;;;;21.27;9.03;;;;;;;-7.18;67.95;99499.54;1591342;88;21124;-65
2021/12/24 08:29:21;;;;;;;;;;;;;;;-7.13;68.22;99469.02;1617062;88;21045;-65
2021/12/24 08:31:49;;;;;;;;;;;;;;;-7.10;68.15;99480.48;1612253;88;20163;-66
2021/12/24 08:34:17;;;;;;;17.17;9.58;;;;;;;-7.20;68.08;99488.45;1640441;85;20195;-66
2021/12/24 08:36:44;;;;;;;17.50;9.37;;;;;;;-7.29;68.49;99473.05;1657305;85;22371;-64
2021/12/24 08:39:11;;;;;;;19.07;10.87;;;;;;;-7.31;68.90;99482.66;1650762;85;21040;-65
2021/12/24 08:41:38;;;;;;;15.88;10.68;;;;;;;-7.21;69.00;99447.10;1658099;85;21060;-63
2021/12/24 08:44:04;;;;;;;21.65;11.57;;;;;;;-7.19;68.98;99450.45;1654694;84;21112;-65
2021/12/24 08:46:33;;;;;;;17.93;9.53;;;;;;;-7.17;68.95;99440.83;1630987;86;21033;-66
2021/12/24 08:48:59;;;;;;;17.43;11.10;;;;;;;-7.11;69.13;99437.84;1619695;86;21042;-66
2021/12/24 08:51:27;;;;;;;20.07;12.67;;;;;;;-7.21;69.40;99416.02;1626573;86;21038;-67
2021/12/24 08:53:53;;;;;;;21.17;11.10;;;;;;;-7.09;69.38;99414.78;1625522;86;21053;-64
2021/12/24 08:56:19;;;;;;;15.68;9.85;;;;;;;-7.10;69.41;99392.41;1625989;86;21156;-65
2021/12/24 08:58:45;;;;;;;15.90;9.95;;;;;;;-7.07;69.71;99397.85;1581744;89;21030;-65
2021/12/24 09:01:12;;;;;;;19.73;11.73;;;;;;;-7.07;69.71;99395.27;1628167;85;21008;-65
2021/12/24 09:03:38;;;;;;;18.67;11.60;;;;;;;-7.01;69.73;99387.55;1643477;85;21542;-66
2021/12/24 09:06:05;;;;;;;17.17;9.60;;;;;;;-6.95;69.86;99378.94;1642082;85;21212;-66
2021/12/24 09:08:31;;;;;;;18.35;11.80;;;;;;;-6.90;69.84;99372.14;1647830;85;21059;-64
2021/12/24 09:10:57;;;;;;;16.07;11.53;;;;;;;-6.79;69.83;99381.33;1645493;85;21063;-63
2021/12/24 09:13:23;;;;;;;18.87;11.25;;;;;;;-6.76;69.61;99369.48;1644230;84;21583;-65
2021/12/24 09:15:49;;;;;;;18.20;11.68;;;;;;;-6.64;69.56;99363.11;1645047;85;21015;-65
2021/12/24 09:18:16;;;;;;;17.55;10.35;;;;;;;-6.64;69.54;99347.56;1644399;85;21116;-66
2021/12/24 09:20:44;;;;;;;18.97;10.47;;;;;;;-6.58;69.53;99340.66;1649032;85;21095;-65
2021/12/24 09:23:11;;;;;;;17.07;10.50;;;;;;;-6.57;69.79;99322.86;1644456;84;21082;-66
2021/12/24 09:25:40;;;;;;;23.57;12.03;;;;;;;-6.58;69.46;99314.27;1647517;85;21248;-64
2021/12/24 09:28:08;;;;;;;21.70;12.23;;;;;;;-6.57;69.50;99317.23;1673536;84;21095;-63
2021/12/24 09:30:36;;;;;;;22.67;11.40;;;;;;;-6.50;69.74;99308.11;1640176;85;22430;-64
2021/12/24 09:33:05;;;;;;;19.73;11.70;;;;;;;-6.47;69.62;99309.17;1637094;85;21357;-64
2021/12/24 09:35:32;;;;;;;18.80;12.60;;;;;;;-6.50;69.63;99296.89;1637845;85;21112;-64
2021/12/24 09:38:00;;;;;;;20.90;12.47;;;;;;;-6.48;69.71;99293.72;1647055;85;20984;-64
2021/12/24 09:40:27;;;;;;;18.00;11.73;;;;;;;-6.49;70.16;99296.78;1649409;85;21139;-65
2021/12/24 09:42:54;;;;;;;19.03;12.17;;;;;;;-6.47;69.91;99285.02;1647686;85;21039;-66
2021/12/24 09:45:20;;;;;;;21.47;11.63;;;;;;;-6.41;69.61;99286.36;1660452;84;21088;-66
2021/12/24 09:47:47;;;;;;;17.95;10.95;;;;;;;-6.41;69.75;99288.48;1646712;85;21067;-65
2021/12/24 09:50:18;;;;;;;18.00;11.33;;;;;;;-6.39;69.76;99268.45;1649045;85;21135;-63
2021/12/24 09:52:45;;;;;;;22.93;13.53;;;;;;;-6.34;69.70;99261.19;1635170;85;21609;-65
2021/12/24 09:55:16;;;;;;;22.70;11.70;;;;;;;-6.23;69.76;99244.88;1646807;85;21039;-64
2021/12/24 09:57:43;;;;;;;18.27;11.57;;;;;;;-6.15;69.68;99250.83;1632383;85;21159;-65
2021/12/24 10:00:13;;;;;;;20.70;12.43;;;;;;;-6.10;69.51;99253.45;1639531;85;22205;-63
2021/12/24 10:02:46;;;;;;;17.80;11.40;;;;;;;-6.11;69.38;99245.30;1636869;85;21597;-65
2021/12/24 10:05:33;;;;;;;17.43;11.27;;;;;;;-6.17;69.52;99232.77;1638438;85;21048;-63
2021/12/24 10:08:16;;;;;;;19.13;12.60;;;;;;;-6.20;70.11;99218.71;1645590;85;21086;-64
2021/12/24 10:10:46;;;;;;;25.47;13.30;;;;;;;-6.14;70.08;99223.48;1648727;85;21163;-63
2021/12/24 10:13:41;;;;;;;24.43;11.13;;;;;;;-6.08;70.08;99221.74;1653588;84;20978;-66
2021/12/24 10:16:17;;;;;;;19.20;11.37;;;;;;;-6.05;70.40;99231.06;1656026;85;20979;-65
2021/12/24 10:18:55;;;;;;;21.57;12.53;;;;;;;-6.11;70.60;99215.94;1656021;85;21066;-64
2021/12/24 10:21:29;;;;;;;19.07;12.80;;;;;;;-6.03;70.84;99195.93;1646818;85;21212;-70
2021/12/24 10:24:02;;;;;;;14.83;8.23;;;;;;;-5.96;71.09;99183.70;1657361;85;20990;-66
2021/12/24 10:26:33;;;;;;;18.43;10.60;;;;;;;-6.08;71.72;99184.13;1648751;85;21489;-66
2021/12/24 10:29:10;;;;;;;16.03;8.20;;;;;;;-5.97;71.85;99188.55;1648001;85;21026;-66
2021/12/24 10:31:52;;;;;;;15.97;11.23;;;;;;;-6.02;72.17;99178.95;1658909;85;20951;-67
2021/12/24 10:34:28;;;;;;;20.00;10.53;;;;;;;-5.97;72.39;99164.34;1650739;84;21082;-67
2021/12/24 10:37:22;;;;;;;18.10;11.15;;;;;;;-5.97;72.56;99158.70;1654067;85;21038;-67
2021/12/24 10:39:58;;;;;;;15.23;10.20;;;;;;;-5.99;72.70;99163.18;1650866;85;21018;-69
2021/12/24 10:42:38;;;;;;;15.80;9.55;;;;;;;-5.97;72.95;99155.27;1649918;85;21010;-66
2021/12/24 10:45:10;;;;;;;19.67;11.87;;;;;;;-5.94;72.69;99140.27;1654152;85;21142;-67
2021/12/24 10:47:40;;;;;;;15.13;9.87;;;;;;;-5.85;72.66;99137.47;1626058;85;21561;-66
2021/12/24 10:50:29;;;;;;;16.63;10.03;;;;;;;-5.82;72.79;99123.44;1660069;85;21038;-67
2021/12/24 10:55:50;;;;;;;16.23;11.03;;;;;;;-5.71;72.81;99109.19;1651965;85;21554;-67
2021/12/24 10:58:22;;;;;;;16.87;10.75;;;;;;;-5.70;72.74;99099.17;1622900;86;21038;-65
2021/12/24 11:00:59;;;;;;;13.97;9.33;;;;;;;-5.63;72.83;99114.66;1606226;87;21408;-64
2021/12/24 11:03:31;;;;;;;18.10;10.58;;;;;;;-5.65;72.88;99101.41;1626302;86;21067;-66
2021/12/24 11:06:08;;;;;;;15.33;10.57;;;;;;;-5.59;72.70;99098.38;1650862;85;21198;-65
2021/12/24 11:08:37;;;;;;;17.95;9.85;;;;;;;-5.58;72.79;99088.33;1648652;85;21061;-66
2021/12/24 11:11:08;;;;;;;16.63;11.70;;;;;;;-5.46;72.81;99075.72;1659142;84;21090;-66
2021/12/24 11:13:39;;;;;;;16.27;9.77;;;;;;;-5.35;72.52;99078.33;1664613;85;21016;-66
2021/12/24 11:16:10;;;;;;;15.13;9.53;;;;;;;-5.35;72.32;99069.69;1656138;85;21020;-66
2021/12/24 11:18:43;;;;;;;13.90;10.77;;;;;;;-5.74;72.24;98988.26;1645979;85;21155;-66
2021/12/24 11:21:18;;;;;;;18.03;11.97;;;;;;;-5.29;72.19;99060.14;1660766;85;21034;-67
2021/12/24 11:23:44;;;;;;;16.13;10.83;;;;;;;-5.27;71.98;99055.66;1664567;85;21069;-68
2021/12/24 11:26:15;;;;;;;17.62;12.58;;;;;;;-5.30;72.21;99061.08;1665253;85;21073;-66
2021/12/24 11:28:43;;;;;;;13.00;10.67;;;;;;;-5.26;72.17;99053.39;1666307;85;21088;-66
2021/12/24 11:31:16;;;;;;;20.67;11.60;;;;;;;-5.31;72.21;99058.14;1662467;85;21038;-65
2021/12/24 11:33:45;;;;;;;18.73;10.50;;;;;;;-5.34;72.04;99052.69;1671039;85;21069;-69
2021/12/24 11:36:16;;;;;;;18.70;12.03;;;;;;;-5.35;72.37;99061.89;1683268;83;21588;-67
2021/12/24 11:38:47;;;;;;;16.97;12.37;;;;;;;-5.33;72.33;99062.59;1689385;83;20990;-67
2021/12/24 11:41:17;;;;;;;14.47;10.93;;;;;;;-5.25;72.31;99060.25;1686117;83;21054;-68
2021/12/24 11:43:48;;;;;;;18.63;11.33;;;;;;;-5.15;72.26;99053.38;1693895;83;21005;-66
2021/12/24 11:46:19;;;;;;;19.00;11.70;;;;;;;-5.11;71.96;99040.98;1688940;82;21655;-66
2021/12/24 11:48:48;;;;;;;16.97;11.33;;;;;;;-5.07;72.05;99043.69;1685074;83;21058;-66
2021/12/24 11:51:19;;;;;;;18.50;10.70;;;;;;;-5.03;71.56;99027.38;1655771;85;21040;-67
2021/12/24 11:53:48;;;;;;;15.10;10.30;;;;;;;-5.13;71.68;99021.61;1693519;83;21086;-67
2021/12/24 11:56:17;;;;;;;13.97;9.10;;;;;;;-5.06;71.79;99019.37;1694619;83;21026;-66
2021/12/24 11:58:52;;;;;;;11.90;9.33;;;;;;;-5.04;71.77;99019.25;1692296;83;21197;-67
2021/12/24 12:01:22;;;;;;;17.57;10.63;;;;;;;-4.99;71.72;99005.40;1694142;83;21160;-67
2021/12/24 12:03:52;;;;;;;19.63;11.47;;;;;;;-5.00;71.72;99007.18;1692681;83;21533;-66
2021/12/24 12:06:32;;;;;;;17.17;11.47;;;;;;;-5.04;72.00;99004.48;1687150;83;21058;-67
2021/12/24 12:09:04;;;;;;;15.13;11.10;;;;;;;-5.02;72.06;98998.69;1683691;83;21029;-66
2021/12/24 12:11:35;;;;;;;20.53;12.40;;;;;;;-5.06;72.37;99008.98;1682489;83;21053;-68
2021/12/24 12:14:17;;;;;;;18.30;11.23;;;;;;;-5.00;72.21;98992.89;1691191;83;21034;-66
2021/12/24 12:16:54;;;;;;;21.90;12.20;;;;;;;-4.93;72.33;98992.76;1691264;83;21132;-66
2021/12/24 12:25:03;;;;;;;21.23;14.50;;;;;;;-4.94;72.40;98988.49;1677839;83;21510;-68
2021/12/24 12:27:43;;;;;;;17.97;10.70;;;;;;;-4.95;72.58;98969.97;1635541;83;21133;-68
2021/12/24 12:30:30;;;;;;;18.90;12.43;;;;;;;-5.04;72.90;98986.29;1692892;83;21011;-67
2021/12/24 12:33:15;;;;;;;20.27;13.65;;;;;;;-4.93;72.85;98977.16;1688223;83;21570;-66
2021/12/24 12:36:35;;;;;;;18.30;12.73;;;;;;;-4.90;73.05;98965.69;1846821;76;22244;-69
2021/12/24 12:39:07;;;;;;;19.43;11.93;;;;;;;-4.96;73.29;98985.19;1774782;78;21001;-67
2021/12/24 12:41:35;;;;;;;20.07;13.83;;;;;;;-4.89;73.23;98972.55;1765564;78;21021;-66
2021/12/24 12:44:06;;;;;;;19.47;12.90;;;;;;;-4.86;73.34;98986.58;1761341;78;21048;-67
2021/12/24 12:46:37;;;;;;;18.23;13.13;;;;;;;-4.80;73.34;98976.16;1781423;78;21101;-66
2021/12/24 12:49:07;;;;;;;20.77;13.33;;;;;;;-4.78;73.36;98988.59;1775582;78;21512;-68
2021/12/24 12:51:57;;;;;;;24.17;11.73;;;;;;;-4.76;73.32;98985.39;1718522;82;21094;-67
2021/12/24 12:54:37;;;;;;;19.73;12.90;;;;;;;-4.81;73.54;98981.84;1777219;78;21066;-68
2021/12/24 12:57:32;;;;;;;14.67;10.50;;;;;;;-4.75;73.57;98972.72;1716339;79;21008;-67
2021/12/24 13:00:19;;;;;;;19.97;14.73;;;;;;;-4.70;73.56;98941.98;1701735;83;20970;-67
2021/12/24 13:05:45;;;;;;;19.67;13.53;;;;;;;-4.71;73.62;98936.42;1647793;85;21149;-67
2021/12/24 13:08:21;;;;;;;16.77;13.33;;;;;;;-4.74;74.08;98937.51;1666325;84;21194;-66
2021/12/24 13:11:08;;;;;;;19.93;13.67;;;;;;;-4.76;74.37;98923.81;1642754;86;21058;-68
2021/12/24 13:13:55;;;;;;;18.27;13.33;;;;;;;-4.75;74.65;98903.83;1667543;84;21042;-68
2021/12/24 13:16:43;;;;;;;20.00;13.68;;;;;;;-4.78;74.59;98911.41;1645827;86;21003;-67
2021/12/24 13:25:10;;;;;;;17.73;11.93;;;;;;;-4.67;74.71;98885.84;1650322;85;21081;-68
2021/12/24 13:27:51;;;;;;;23.03;14.07;;;;;;;-4.98;74.50;98825.97;1672084;84;21069;-66
2021/12/24 13:30:25;;;;;;;23.90;15.10;;;;;;;-4.61;74.33;98865.83;1643930;86;21130;-67
2021/12/24 13:33:02;;;;;;;21.80;14.23;;;;;;;-4.58;74.44;98861.65;1668254;84;21091;-66
2021/12/24 13:35:44;;;;;;;21.52;12.33;;;;;;;-4.53;74.46;98858.68;1650218;86;21566;-68